Time,TemperatureF,DewpointF,PressureIn,WindDirection,WindDirectionDegrees,WindSpeedMPH,WindSpeedGustMPH,Humidity,HourlyPrecipIn,Conditions,Clouds,dailyrainin,SolarRadiationWatts/m^2,SoftwareType,DateUTC
2013-04-28 00:06:00,68.0,25.0,29.80,NNE,14,0.0,0.0,20,0.00,,,0.00,0,weatherlink.com 1.10,2013-04-28 06:06:00,
2013-04-28 00:21:00,67.3,26.0,29.80,NNE,14,0.0,0.0,21,0.00,,,0.00,0,weatherlink.com 1.10,2013-04-28 06:21:00,
2013-04-28 00:36:00,67.1,26.0,29.80,NNE,14,0.0,0.0,21,0.00,,,0.00,0,weatherlink.com 1.10,2013-04-28 06:36:00,
2013-04-28 00:51:00,66.8,27.0,29.80,NNE,14,0.0,0.0,22,0.00,,,0.00,0,weatherlink.com 1.10,2013-04-28 06:51:00,
2013-04-28 01:06:00,67.0,27.0,29.80,NNE,14,0.0,2.0,22,0.00,,,0.00,0,weatherlink.com 1.10,2013-04-28 07:06:00,
2013-04-28 01:21:00,66.7,28.0,29.80,NNE,18,0.0,2.0,23,0.00,,,0.00,0,weatherlink.com 1.10,2013-04-28 07:21:00,
2013-04-28 01:36:00,65.6,28.0,29.79,NNE,19,1.0,2.0,24,0.00,,,0.00,0,weatherlink.com 1.10,2013-04-28 07:36:00,
2013-04-28 01:51:00,65.9,28.0,29.79,NNE,19,0.0,1.0,24,0.00,,,0.00,0,weatherlink.com 1.10,2013-04-28 07:51:00,
2013-04-28 02:06:00,66.3,28.0,29.79,NNE,22,0.0,2.0,24,0.00,,,0.00,0,weatherlink.com 1.10,2013-04-28 08:06:00,
2013-04-28 02:21:00,65.9,29.0,29.78,NNE,22,0.0,3.0,25,0.00,,,0.00,0,weatherlink.com 1.10,2013-04-28 08:21:00,
2013-04-28 02:36:00,65.5,30.0,29.78,NNE,23,0.0,2.0,26,0.00,,,0.00,0,weatherlink.com 1.10,2013-04-28 08:36:00,
2013-04-28 02:51:00,64.7,29.0,29.78,NNE,24,0.0,2.0,26,0.00,,,0.00,0,weatherlink.com 1.10,2013-04-28 08:51:00,
2013-04-28 03:06:00,65.0,30.0,29.78,NNE,24,2.0,2.0,27,0.00,,,0.00,0,weatherlink.com 1.10,2013-04-28 09:06:00,
2013-04-28 03:21:00,64.9,30.0,29.77,NE,34,1.0,3.0,27,0.00,,,0.00,0,weatherlink.com 1.10,2013-04-28 09:21:00,
2013-04-28 03:36:00,64.3,30.0,29.77,NE,34,0.0,4.0,28,0.00,,,0.00,0,weatherlink.com 1.10,2013-04-28 09:36:00,
2013-04-28 03:52:00,64.0,31.0,29.77,NE,34,0.0,2.0,29,0.00,,,0.00,0,weatherlink.com 1.10,2013-04-28 09:52:00,
2013-04-28 04:07:00,63.9,32.0,29.76,NE,34,1.0,2.0,30,0.00,,,0.00,0,weatherlink.com 1.10,2013-04-28 10:07:00,
2013-04-28 04:22:00,63.6,33.0,29.76,NE,34,0.0,2.0,32,0.00,,,0.00,0,weatherlink.com 1.10,2013-04-28 10:22:00,
2013-04-28 04:37:00,63.6,35.0,29.76,NE,34,0.0,1.0,35,0.00,,,0.00,0,weatherlink.com 1.10,2013-04-28 10:37:00,
2013-04-28 04:52:00,62.7,35.0,29.76,NE,34,0.0,0.0,36,0.00,,,0.00,0,weatherlink.com 1.10,2013-04-28 10:52:00,
2013-04-28 05:07:00,61.9,36.0,29.77,NE,34,0.0,0.0,38,0.00,,,0.00,0,weatherlink.com 1.10,2013-04-28 11:07:00,
2013-04-28 05:22:00,61.1,35.0,29.77,NE,34,0.0,0.0,38,0.00,,,0.00,0,weatherlink.com 1.10,2013-04-28 11:22:00,
2013-04-28 05:37:00,60.5,35.0,29.77,NE,34,0.0,0.0,39,0.00,,,0.00,0,weatherlink.com 1.10,2013-04-28 11:37:00,
2013-04-28 05:52:00,59.3,34.0,29.78,NE,34,0.0,0.0,39,0.00,,,0.00,0,weatherlink.com 1.10,2013-04-28 11:52:00,
2013-04-28 06:07:00,59.0,35.0,29.78,NE,34,0.0,0.0,40,0.00,,,0.00,0,weatherlink.com 1.10,2013-04-28 12:07:00,
2013-04-28 06:22:00,58.3,32.0,29.80,NE,34,0.0,0.0,37,0.00,,,0.00,0,weatherlink.com 1.10,2013-04-28 12:22:00,
2013-04-28 06:37:00,58.2,32.0,29.79,NE,38,0.0,0.0,37,0.00,,,0.00,12,weatherlink.com 1.10,2013-04-28 12:37:00,
2013-04-28 06:52:00,58.5,31.0,29.80,NE,38,0.0,0.0,36,0.00,,,0.00,21,weatherlink.com 1.10,2013-04-28 12:52:00,
2013-04-28 07:07:00,59.4,32.0,29.81,NE,38,0.0,0.0,35,0.00,,,0.00,63,weatherlink.com 1.10,2013-04-28 13:07:00,
2013-04-28 07:22:00,61.8,32.0,29.81,NE,38,0.0,1.0,33,0.00,,,0.00,111,weatherlink.com 1.10,2013-04-28 13:22:00,
2013-04-28 07:37:00,64.0,33.0,29.81,NE,38,0.0,1.0,31,0.00,,,0.00,165,weatherlink.com 1.10,2013-04-28 13:37:00,
2013-04-28 07:52:00,65.1,34.0,29.82,NE,38,0.0,1.0,31,0.00,,,0.00,216,weatherlink.com 1.10,2013-04-28 13:52:00,
2013-04-28 08:07:00,66.5,35.0,29.82,NE,38,0.0,1.0,31,0.00,,,0.00,265,weatherlink.com 1.10,2013-04-28 14:07:00,
2013-04-28 08:22:00,67.6,39.0,29.82,NE,38,0.0,1.0,35,0.00,,,0.00,313,weatherlink.com 1.10,2013-04-28 14:22:00,
2013-04-28 08:37:00,68.5,40.0,29.82,NE,38,0.0,2.0,35,0.00,,,0.00,364,weatherlink.com 1.10,2013-04-28 14:37:00,
2013-04-28 08:53:00,70.2,40.0,29.81,NE,38,0.0,2.0,34,0.00,,,0.00,413,weatherlink.com 1.10,2013-04-28 14:53:00,
2013-04-28 09:08:00,71.3,41.0,29.81,NE,38,0.0,3.0,33,0.00,,,0.00,461,weatherlink.com 1.10,2013-04-28 15:08:00,
2013-04-28 09:23:00,73.0,41.0,29.81,NE,38,0.0,4.0,32,0.00,,,0.00,508,weatherlink.com 1.10,2013-04-28 15:23:00,
2013-04-28 09:38:00,72.9,42.0,29.81,NE,38,0.0,2.0,33,0.00,,,0.00,555,weatherlink.com 1.10,2013-04-28 15:38:00,
2013-04-28 09:53:00,74.0,42.0,29.81,NE,38,1.0,3.0,32,0.00,,,0.00,599,weatherlink.com 1.10,2013-04-28 15:53:00,
2013-04-28 10:08:00,73.7,43.0,29.81,NE,38,0.0,4.0,33,0.00,,,0.00,642,weatherlink.com 1.10,2013-04-28 16:08:00,
2013-04-28 10:23:00,74.6,43.0,29.81,NE,38,0.0,3.0,32,0.00,,,0.00,684,weatherlink.com 1.10,2013-04-28 16:23:00,
2013-04-28 10:38:00,76.2,44.0,29.81,NE,38,0.0,3.0,32,0.00,,,0.00,719,weatherlink.com 1.10,2013-04-28 16:38:00,
2013-04-28 10:53:00,75.9,43.0,29.80,NE,56,0.0,6.0,31,0.00,,,0.00,752,weatherlink.com 1.10,2013-04-28 16:53:00,
2013-04-28 11:08:00,77.1,43.0,29.80,NE,56,0.0,4.0,30,0.00,,,0.00,786,weatherlink.com 1.10,2013-04-28 17:08:00,
2013-04-28 11:23:00,78.0,42.0,29.80,ENE,59,3.0,5.0,28,0.00,,,0.00,814,weatherlink.com 1.10,2013-04-28 17:23:00,
2013-04-28 11:38:00,78.0,42.0,29.79,East,86,1.0,9.0,28,0.00,,,0.00,844,weatherlink.com 1.10,2013-04-28 17:38:00,
2013-04-28 11:53:00,79.3,42.0,29.79,East,91,0.0,6.0,26,0.00,,,0.00,865,weatherlink.com 1.10,2013-04-28 17:53:00,
2013-04-28 12:08:00,80.6,39.0,29.78,East,91,1.0,3.0,23,0.00,,,0.00,884,weatherlink.com 1.10,2013-04-28 18:08:00,
2013-04-28 12:23:00,81.7,40.0,29.77,East,91,0.0,3.0,23,0.00,,,0.00,898,weatherlink.com 1.10,2013-04-28 18:23:00,
2013-04-28 12:39:00,81.3,39.0,29.76,SE,137,0.0,5.0,22,0.00,,,0.00,905,weatherlink.com 1.10,2013-04-28 18:39:00,
2013-04-28 12:54:00,84.5,37.0,29.75,SE,137,0.0,2.0,18,0.00,,,0.00,914,weatherlink.com 1.10,2013-04-28 18:54:00,
2013-04-28 13:09:00,82.5,36.0,29.75,South,183,5.0,9.0,19,0.00,,,0.00,926,weatherlink.com 1.10,2013-04-28 19:09:00,
2013-04-28 13:24:00,83.1,34.0,29.74,South,186,0.0,2.0,17,0.00,,,0.00,942,weatherlink.com 1.10,2013-04-28 19:24:00,
2013-04-28 13:39:00,84.4,35.0,29.74,South,186,0.0,4.0,17,0.00,,,0.00,944,weatherlink.com 1.10,2013-04-28 19:39:00,
2013-04-28 13:54:00,83.2,33.0,29.73,South,186,1.0,5.0,16,0.00,,,0.00,267,weatherlink.com 1.10,2013-04-28 19:54:00,
2013-04-28 14:09:00,83.6,36.0,29.73,ENE,78,1.0,10.0,18,0.00,,,0.00,279,weatherlink.com 1.10,2013-04-28 20:09:00,
2013-04-28 14:24:00,82.4,35.0,29.72,ESE,105,4.0,12.0,18,0.00,,,0.00,211,weatherlink.com 1.10,2013-04-28 20:24:00,
2013-04-28 14:39:00,83.3,33.0,29.71,NE,52,1.0,8.0,16,0.00,,,0.00,865,weatherlink.com 1.10,2013-04-28 20:39:00,
2013-04-28 14:54:00,84.1,32.0,29.71,NE,53,0.0,5.0,15,0.00,,,0.00,810,weatherlink.com 1.10,2013-04-28 20:54:00,
2013-04-28 15:09:00,84.0,32.0,29.70,East,82,2.0,7.0,15,0.00,,,0.00,780,weatherlink.com 1.10,2013-04-28 21:09:00,
2013-04-28 15:24:00,84.3,32.0,29.69,East,90,2.0,13.0,15,0.00,,,0.00,744,weatherlink.com 1.10,2013-04-28 21:24:00,
2013-04-28 15:54:00,84.8,32.0,29.67,SSE,155,5.0,8.0,15,0.00,,,0.00,663,weatherlink.com 1.10,2013-04-28 21:54:00,
2013-04-28 16:09:00,83.9,32.0,29.67,SSE,167,1.0,6.0,15,0.00,,,0.00,624,weatherlink.com 1.10,2013-04-28 22:09:00,
2013-04-28 16:24:00,84.4,30.0,29.66,SSE,167,0.0,4.0,14,0.00,,,0.00,578,weatherlink.com 1.10,2013-04-28 22:24:00,
2013-04-28 16:39:00,85.0,31.0,29.65,South,172,3.0,6.0,14,0.00,,,0.00,531,weatherlink.com 1.10,2013-04-28 22:39:00,
2013-04-28 16:54:00,84.9,31.0,29.65,SSW,209,1.0,9.0,14,0.00,,,0.00,483,weatherlink.com 1.10,2013-04-28 22:54:00,
2013-04-28 17:09:00,85.2,29.0,29.65,SW,217,0.0,2.0,13,0.00,,,0.00,434,weatherlink.com 1.10,2013-04-28 23:09:00,
2013-04-28 17:24:00,85.3,29.0,29.64,SW,217,0.0,3.0,13,0.00,,,0.00,385,weatherlink.com 1.10,2013-04-28 23:24:00,
2013-04-28 17:39:00,86.4,28.0,29.64,SW,217,0.0,4.0,12,0.00,,,0.00,67,weatherlink.com 1.10,2013-04-28 23:39:00,
2013-04-28 17:54:00,85.2,27.0,29.64,SW,217,0.0,2.0,12,0.00,,,0.00,272,weatherlink.com 1.10,2013-04-28 23:54:00,
2013-04-28 18:09:00,85.9,28.0,29.63,SW,217,0.0,2.0,12,0.00,,,0.00,237,weatherlink.com 1.10,2013-04-29 00:09:00,
2013-04-28 18:24:00,83.6,30.0,29.63,SW,217,1.0,7.0,14,0.00,,,0.00,58,weatherlink.com 1.10,2013-04-29 00:24:00,
2013-04-28 18:39:00,82.9,27.0,29.63,SW,217,0.0,2.0,13,0.00,,,0.00,42,weatherlink.com 1.10,2013-04-29 00:39:00,
2013-04-28 18:54:00,82.7,27.0,29.62,SW,217,0.0,3.0,13,0.00,,,0.00,35,weatherlink.com 1.10,2013-04-29 00:54:00,
2013-04-28 19:09:00,82.3,28.0,29.62,SW,217,0.0,2.0,14,0.00,,,0.00,26,weatherlink.com 1.10,2013-04-29 01:09:00,
2013-04-28 19:24:00,81.7,28.0,29.62,SW,217,0.0,1.0,14,0.00,,,0.00,16,weatherlink.com 1.10,2013-04-29 01:24:00,
2013-04-28 19:39:00,80.8,29.0,29.62,SW,217,2.0,3.0,15,0.00,,,0.00,5,weatherlink.com 1.10,2013-04-29 01:39:00,
2013-04-28 19:54:00,80.3,30.0,29.63,SW,217,0.0,4.0,16,0.00,,,0.00,0,weatherlink.com 1.10,2013-04-29 01:54:00,
2013-04-28 20:09:00,80.1,30.0,29.63,SW,217,0.0,2.0,16,0.00,,,0.00,0,weatherlink.com 1.10,2013-04-29 02:09:00,
2013-04-28 20:24:00,79.5,29.0,29.63,SW,217,0.0,2.0,16,0.00,,,0.00,0,weatherlink.com 1.10,2013-04-29 02:24:00,
2013-04-28 20:39:00,79.3,29.0,29.64,SW,217,0.0,2.0,16,0.00,,,0.00,0,weatherlink.com 1.10,2013-04-29 02:39:00,
2013-04-28 20:54:00,78.7,29.0,29.64,SW,217,0.0,1.0,16,0.00,,,0.00,0,weatherlink.com 1.10,2013-04-29 02:54:00,
2013-04-28 21:09:00,77.8,30.0,29.64,SW,217,0.0,0.0,17,0.00,,,0.00,0,weatherlink.com 1.10,2013-04-29 03:09:00,
2013-04-28 21:24:00,77.3,29.0,29.65,SW,217,0.0,2.0,17,0.00,,,0.00,0,weatherlink.com 1.10,2013-04-29 03:24:00,
2013-04-28 21:39:00,76.7,29.0,29.65,SW,217,0.0,1.0,17,0.00,,,0.00,0,weatherlink.com 1.10,2013-04-29 03:39:00,
2013-04-28 21:54:00,76.1,30.0,29.65,SW,217,0.0,1.0,18,0.00,,,0.00,0,weatherlink.com 1.10,2013-04-29 03:54:00,
2013-04-28 22:09:00,75.6,29.0,29.66,SW,217,0.0,2.0,18,0.00,,,0.00,0,weatherlink.com 1.10,2013-04-29 04:09:00,
2013-04-28 22:24:00,75.3,29.0,29.66,SW,217,0.0,2.0,18,0.00,,,0.00,0,weatherlink.com 1.10,2013-04-29 04:24:00,
2013-04-28 22:39:00,74.8,28.0,29.65,SW,217,0.0,2.0,18,0.00,,,0.00,0,weatherlink.com 1.10,2013-04-29 04:39:00,
2013-04-28 22:54:00,73.7,28.0,29.65,SW,217,0.0,1.0,18,0.00,,,0.00,0,weatherlink.com 1.10,2013-04-29 04:54:00,
2013-04-28 23:09:00,72.9,28.0,29.65,SW,217,0.0,1.0,19,0.00,,,0.00,0,weatherlink.com 1.10,2013-04-29 05:09:00,
2013-04-28 23:24:00,72.4,28.0,29.65,SW,217,0.0,0.0,19,0.00,,,0.00,0,weatherlink.com 1.10,2013-04-29 05:24:00,
2013-04-28 23:39:00,71.9,27.0,29.65,SW,217,0.0,1.0,19,0.00,,,0.00,0,weatherlink.com 1.10,2013-04-29 05:39:00,
2013-04-28 23:54:00,71.6,27.0,29.65,SW,217,0.0,0.0,19,0.00,,,0.00,0,weatherlink.com 1.10,2013-04-29 05:54:00,